createdAt,value
2023-05-11T00:00:15.210Z,10.50
2023-05-11T00:03:43.088Z,10.49
2023-05-11T00:07:11.309Z,10.50
2023-05-11T00:10:39.313Z,10.50
2023-05-11T00:14:07.522Z,10.51
2023-05-11T00:17:35.463Z,10.53
2023-05-11T00:21:03.492Z,10.55
2023-05-11T00:24:12.414Z,10.58
2023-05-11T00:27:40.428Z,10.61
2023-05-11T00:31:08.877Z,10.64
2023-05-11T00:34:17.745Z,10.65
2023-05-11T00:37:46.310Z,10.66
2023-05-11T00:41:14.465Z,10.65
2023-05-11T00:44:42.346Z,10.65
2023-05-11T00:48:10.548Z,10.64
2023-05-11T00:51:38.709Z,10.64
2023-05-11T00:55:06.774Z,10.65
2023-05-11T00:58:34.533Z,10.63
2023-05-11T01:01:03.733Z,10.63
2023-05-11T01:04:32.132Z,10.60
2023-05-11T01:08:00.375Z,10.60
2023-05-11T01:11:28.265Z,10.58
2023-05-11T01:14:56.103Z,10.56
2023-05-11T01:18:24.506Z,10.52
2023-05-11T01:21:52.610Z,10.50
2023-05-11T01:25:20.393Z,10.46
2023-05-11T01:28:48.792Z,10.41
2023-05-11T01:32:16.785Z,10.37
2023-05-11T01:35:45.144Z,10.32
2023-05-11T01:39:13.236Z,10.29
2023-05-11T01:42:41.904Z,10.24
2023-05-11T01:46:10.016Z,10.20
2023-05-11T01:49:37.720Z,10.15
2023-05-11T01:53:06.344Z,10.11
2023-05-11T01:56:34.727Z,10.09
2023-05-11T02:00:02.813Z,10.07
2023-05-11T02:03:30.778Z,10.08
2023-05-11T02:06:58.977Z,10.05
2023-05-11T02:10:27.046Z,10.02
2023-05-11T02:13:54.949Z,10.01
2023-05-11T02:17:23.739Z,10.00
2023-05-11T02:20:51.583Z,10.00
2023-05-11T02:24:19.947Z,9.97
2023-05-11T02:27:47.949Z,9.96
2023-05-11T02:31:16.029Z,9.95
2023-05-11T02:34:43.819Z,9.94
2023-05-11T02:38:11.682Z,9.93
2023-05-11T02:41:39.489Z,9.93
2023-05-11T02:45:08.703Z,9.94
2023-05-11T02:48:36.866Z,9.94
2023-05-11T02:52:04.924Z,9.94
2023-05-11T02:55:32.997Z,9.95
2023-05-11T02:59:01.116Z,9.97
2023-05-11T03:02:29.582Z,9.99
2023-05-11T03:05:57.487Z,10.02
2023-05-11T03:09:25.581Z,10.05
2023-05-11T03:12:54.000Z,10.08
2023-05-11T03:16:03.262Z,10.10
2023-05-11T03:19:31.465Z,10.13
2023-05-11T03:22:40.013Z,10.16
2023-05-11T03:26:08.291Z,10.18
2023-05-11T03:29:17.700Z,10.20
2023-05-11T03:32:46.179Z,10.23
2023-05-11T03:35:54.351Z,10.26
2023-05-11T03:39:02.474Z,10.28
2023-05-11T03:42:30.383Z,10.29
2023-05-11T03:45:38.929Z,10.34
2023-05-11T03:48:08.687Z,10.36
2023-05-11T03:51:16.716Z,10.41
2023-05-11T03:54:44.780Z,10.47
2023-05-11T03:58:12.876Z,10.53
2023-05-11T04:01:41.284Z,10.60
2023-05-11T04:05:09.560Z,10.68
2023-05-11T04:08:37.766Z,10.74
2023-05-11T04:12:05.975Z,10.81
2023-05-11T04:15:30.639Z,10.89
2023-05-11T04:18:39.147Z,10.97
2023-05-11T04:22:06.829Z,11.06
2023-05-11T04:25:35.028Z,11.14
2023-05-11T04:29:03.451Z,11.25
2023-05-11T04:32:32.081Z,11.32
2023-05-11T04:36:01.434Z,11.42
2023-05-11T04:38:52.512Z,11.53
2023-05-11T04:41:42.471Z,11.64
2023-05-11T04:45:10.964Z,11.77
2023-05-11T04:48:25.347Z,11.86
2023-05-11T04:51:53.546Z,11.93
2023-05-11T04:55:22.777Z,12.01
2023-05-11T04:58:32.427Z,12.07
2023-05-11T05:02:01.751Z,12.17
2023-05-11T05:05:29.965Z,12.25
2023-05-11T05:08:58.134Z,12.34
2023-05-11T05:12:26.282Z,12.45
2023-05-11T05:15:14.496Z,12.55
2023-05-11T05:17:45.175Z,12.63
2023-05-11T05:21:13.066Z,12.72
2023-05-11T05:24:21.428Z,12.77
2023-05-11T05:27:29.585Z,12.83
2023-05-11T05:30:38.090Z,12.91
2023-05-11T05:34:05.965Z,13.01
2023-05-11T05:37:34.112Z,13.08
2023-05-11T05:41:03.383Z,13.09
2023-05-11T05:44:12.549Z,13.17
2023-05-11T05:47:21.149Z,13.35
2023-05-11T05:50:48.992Z,13.55
2023-05-11T05:53:38.377Z,13.64
2023-05-11T05:56:47.224Z,13.76
2023-05-11T06:00:15.237Z,13.91
2023-05-11T06:03:29.018Z,14.08
2023-05-11T06:06:34.542Z,14.30
2023-05-11T06:09:44.702Z,14.51
2023-05-11T06:12:52.891Z,14.69
2023-05-11T06:16:21.015Z,14.88
2023-05-11T06:19:30.383Z,15.05
2023-05-11T06:22:38.452Z,15.17
2023-05-11T06:25:47.626Z,15.27
2023-05-11T06:29:15.892Z,15.36
2023-05-11T06:32:44.197Z,15.46
2023-05-11T06:36:12.456Z,15.48
2023-05-11T06:39:40.339Z,15.45
2023-05-11T06:43:08.129Z,15.62
2023-05-11T06:46:16.665Z,15.74
2023-05-11T06:49:24.985Z,15.93
2023-05-11T06:52:33.566Z,16.08
2023-05-11T06:56:01.591Z,16.28
2023-05-11T06:59:29.494Z,16.52
2023-05-11T07:02:17.930Z,16.67
2023-05-11T07:05:45.880Z,16.98
2023-05-11T07:09:14.192Z,17.26
2023-05-11T07:12:42.236Z,17.41
2023-05-11T07:16:10.408Z,17.50
2023-05-11T07:19:19.259Z,17.54
2023-05-11T07:22:27.671Z,17.60
2023-05-11T07:25:35.878Z,17.78
2023-05-11T07:28:44.800Z,17.94
2023-05-11T07:31:33.817Z,18.02
2023-05-11T07:35:01.646Z,18.01
2023-05-11T07:38:29.619Z,18.17
2023-05-11T07:41:37.871Z,18.31
2023-05-11T07:44:46.768Z,18.41
2023-05-11T07:47:59.440Z,18.60
2023-05-11T07:51:03.268Z,18.84
2023-05-11T07:53:52.049Z,19.05
2023-05-11T07:56:40.094Z,19.05
2023-05-11T08:00:08.350Z,19.15
2023-05-11T08:03:16.349Z,19.29
2023-05-11T08:06:44.171Z,19.52
2023-05-11T08:09:53.162Z,19.65
2023-05-11T08:13:01.087Z,19.67
2023-05-11T08:15:50.456Z,19.75
2023-05-11T08:19:18.647Z,19.87
2023-05-11T08:21:46.915Z,20.12
2023-05-11T08:24:55.363Z,20.42
2023-05-11T08:28:03.280Z,20.59
2023-05-11T08:30:52.118Z,20.70
2023-05-11T08:34:20.404Z,20.81
2023-05-11T08:37:44.873Z,20.94
2023-05-11T08:40:33.532Z,21.04
2023-05-11T08:43:22.225Z,20.95
2023-05-11T08:46:18.660Z,20.96
2023-05-11T08:49:08.225Z,20.98
2023-05-11T08:52:36.143Z,21.11
2023-05-11T08:55:46.532Z,21.23
2023-05-11T08:58:35.065Z,21.34
2023-05-11T09:02:03.230Z,21.43
2023-05-11T09:05:12.276Z,21.33
2023-05-11T09:08:36.193Z,21.25
2023-05-11T09:11:09.901Z,21.24
2023-05-11T09:13:46.662Z,21.33
2023-05-11T09:16:43.230Z,21.56
2023-05-11T09:19:12.346Z,21.76
2023-05-11T09:22:01.229Z,21.98
2023-05-11T09:25:11.273Z,22.16
2023-05-11T09:28:00.237Z,22.36
2023-05-11T09:31:08.291Z,22.68
2023-05-11T09:34:16.309Z,22.76
2023-05-11T09:37:44.306Z,22.66
2023-05-11T09:41:12.511Z,22.67
2023-05-11T09:44:40.767Z,22.78
2023-05-11T09:48:09.059Z,22.95
2023-05-11T09:50:37.443Z,22.98
2023-05-11T09:53:27.564Z,22.91
2023-05-11T09:56:55.747Z,22.86
2023-05-11T09:59:45.307Z,22.95
2023-05-11T10:02:35.726Z,22.94
2023-05-11T10:05:44.266Z,22.79
2023-05-11T10:08:20.590Z,22.75
2023-05-11T10:11:29.350Z,22.74
2023-05-11T10:14:28.934Z,22.96
2023-05-11T10:17:24.555Z,23.17
2023-05-11T10:20:28.239Z,23.19
2023-05-11T10:23:40.232Z,23.10
2023-05-11T10:26:28.896Z,23.13
2023-05-11T10:29:56.880Z,23.20
2023-05-11T10:33:08.937Z,23.25
2023-05-11T10:36:01.320Z,23.32
2023-05-11T10:38:51.515Z,23.36
2023-05-11T10:41:42.376Z,23.40
2023-05-11T10:44:58.099Z,23.39
2023-05-11T10:47:49.160Z,23.29
2023-05-11T10:51:17.434Z,23.37
2023-05-11T10:54:26.808Z,23.26
2023-05-11T10:56:57.653Z,23.19
2023-05-11T11:00:07.403Z,23.26
2023-05-11T11:03:35.366Z,23.26
2023-05-11T11:06:44.812Z,22.98
2023-05-11T11:10:12.937Z,22.80
2023-05-11T11:13:20.998Z,22.77
2023-05-11T11:16:49.018Z,22.86
2023-05-11T11:20:16.834Z,22.95
2023-05-11T11:23:44.766Z,23.12
2023-05-11T11:26:37.360Z,23.34
2023-05-11T11:29:42.721Z,23.22
2023-05-11T11:33:10.540Z,23.08
2023-05-11T11:36:19.060Z,23.10
2023-05-11T11:39:08.816Z,23.11
2023-05-11T11:42:36.932Z,22.95
2023-05-11T11:45:26.292Z,22.74
2023-05-11T11:48:35.333Z,22.60
2023-05-11T11:52:03.535Z,22.55
2023-05-11T11:55:00.045Z,22.31
2023-05-11T11:58:28.029Z,22.08
2023-05-11T12:01:18.189Z,22.00
2023-05-11T12:04:34.478Z,21.81
2023-05-11T12:07:34.151Z,21.70
2023-05-11T12:10:22.488Z,21.47
2023-05-11T12:13:46.187Z,21.33
2023-05-11T12:16:19.001Z,21.21
2023-05-11T12:19:27.850Z,20.99
2023-05-11T12:22:57.212Z,20.96
2023-05-11T12:26:25.241Z,20.90
2023-05-11T12:29:34.454Z,20.91
2023-05-11T12:33:02.515Z,20.93
2023-05-11T12:36:30.342Z,20.93
2023-05-11T12:39:59.609Z,21.03
2023-05-11T12:43:23.032Z,21.00
2023-05-11T12:46:51.609Z,20.81
2023-05-11T12:49:55.395Z,20.84
2023-05-11T12:53:04.187Z,20.81
2023-05-11T12:56:13.214Z,20.88
2023-05-11T12:59:18.253Z,21.01
2023-05-11T13:02:28.533Z,21.05
2023-05-11T13:05:56.609Z,21.08
2023-05-11T13:09:05.015Z,20.96
2023-05-11T13:12:14.838Z,20.81
2023-05-11T13:15:44.541Z,20.60
2023-05-11T13:19:00.480Z,20.35
2023-05-11T13:22:04.673Z,20.26
2023-05-11T13:25:32.764Z,20.14
2023-05-11T13:28:21.388Z,20.05
2023-05-11T13:31:49.738Z,19.97
2023-05-11T13:34:58.407Z,19.85
2023-05-11T13:38:26.384Z,19.79
2023-05-11T13:41:35.429Z,19.59
2023-05-11T13:44:59.772Z,19.48
2023-05-11T13:48:27.885Z,19.33
2023-05-11T13:51:55.891Z,19.20
2023-05-11T13:55:20.250Z,19.07
2023-05-11T13:58:28.112Z,18.92
2023-05-11T14:01:56.222Z,18.88
2023-05-11T14:05:24.233Z,18.83
2023-05-11T14:08:36.156Z,18.81
2023-05-11T14:12:04.477Z,18.68
2023-05-11T14:14:53.972Z,18.66
2023-05-11T14:18:02.938Z,18.55
2023-05-11T14:21:11.023Z,18.52
2023-05-11T14:24:38.859Z,18.51
2023-05-11T14:28:06.685Z,18.40
2023-05-11T14:31:34.658Z,18.39
2023-05-11T14:34:42.339Z,18.37
2023-05-11T14:37:34.333Z,18.34
2023-05-11T14:40:22.894Z,18.38
2023-05-11T14:43:51.019Z,18.41
2023-05-11T14:46:19.787Z,18.44
2023-05-11T14:49:47.623Z,18.49
2023-05-11T14:52:35.920Z,18.53
2023-05-11T14:55:44.315Z,18.60
2023-05-11T14:59:12.469Z,18.63
2023-05-11T15:02:20.424Z,18.74
2023-05-11T15:05:09.821Z,18.77
2023-05-11T15:08:29.539Z,18.67
2023-05-11T15:11:39.562Z,18.66
2023-05-11T15:15:07.691Z,18.63
2023-05-11T15:18:16.498Z,18.68
2023-05-11T15:21:07.586Z,18.62
2023-05-11T15:23:59.040Z,18.55
2023-05-11T15:27:27.206Z,18.47
2023-05-11T15:30:35.153Z,18.43
2023-05-11T15:34:03.188Z,18.40
2023-05-11T15:36:51.242Z,18.39
2023-05-11T15:40:02.977Z,18.36
2023-05-11T15:42:31.363Z,18.34
2023-05-11T15:45:20.989Z,18.21
2023-05-11T15:48:05.392Z,18.18
2023-05-11T15:51:13.341Z,18.13
2023-05-11T15:54:03.176Z,18.09
2023-05-11T15:56:34.859Z,18.03
2023-05-11T16:00:02.668Z,17.95
2023-05-11T16:02:56.081Z,17.84
2023-05-11T16:05:25.466Z,17.77
2023-05-11T16:08:53.347Z,17.59
2023-05-11T16:11:44.847Z,17.49
2023-05-11T16:14:53.664Z,17.37
2023-05-11T16:18:22.024Z,17.30
2023-05-11T16:21:12.699Z,17.27
2023-05-11T16:24:02.166Z,17.16
2023-05-11T16:27:10.334Z,17.10
2023-05-11T16:30:08.314Z,17.05
2023-05-11T16:33:29.260Z,16.98
2023-05-11T16:36:17.272Z,16.96
2023-05-11T16:39:25.936Z,16.98
2023-05-11T16:42:32.221Z,16.90
2023-05-11T16:45:20.245Z,16.83
2023-05-11T16:48:48.225Z,16.74
2023-05-11T16:51:56.313Z,16.68
2023-05-11T16:55:05.268Z,16.64
2023-05-11T16:57:54.123Z,16.62
2023-05-11T17:00:43.398Z,16.53
2023-05-11T17:03:11.682Z,16.51
2023-05-11T17:06:39.479Z,16.37
2023-05-11T17:10:07.503Z,16.31
2023-05-11T17:13:16.929Z,16.23
2023-05-11T17:16:25.697Z,16.15
2023-05-11T17:19:14.183Z,16.11
2023-05-11T17:22:42.595Z,16.03
2023-05-11T17:25:52.528Z,15.98
2023-05-11T17:29:01.369Z,15.97
2023-05-11T17:32:10.479Z,15.94
2023-05-11T17:35:38.186Z,15.91
2023-05-11T17:38:46.681Z,15.82
2023-05-11T17:42:14.502Z,15.74
2023-05-11T17:45:42.739Z,15.66
2023-05-11T17:49:10.716Z,15.58
2023-05-11T17:52:38.959Z,15.52
2023-05-11T17:56:07.094Z,15.47
2023-05-11T17:59:22.726Z,15.45
2023-05-11T18:02:30.789Z,15.37
2023-05-11T18:08:55.562Z,15.20
2023-05-11T18:12:04.339Z,15.16
2023-05-11T18:15:32.752Z,15.11
2023-05-11T18:18:41.014Z,15.06
2023-05-11T18:21:28.903Z,15.03
2023-05-11T18:24:58.305Z,14.95
2023-05-11T18:28:08.131Z,14.88
2023-05-11T18:31:35.968Z,14.80
2023-05-11T18:35:04.019Z,14.77
2023-05-11T18:38:32.289Z,14.75
2023-05-11T18:42:00.416Z,14.71
2023-05-11T18:45:23.531Z,14.64
2023-05-11T18:48:33.638Z,14.62
2023-05-11T18:52:01.828Z,14.61
2023-05-11T18:55:11.526Z,14.58
2023-05-11T18:58:28.262Z,14.56
2023-05-11T19:01:33.292Z,14.58
2023-05-11T19:04:37.855Z,14.62
2023-05-11T19:07:27.029Z,14.63
2023-05-11T19:10:12.469Z,14.58
2023-05-11T19:13:40.459Z,14.55
2023-05-11T19:17:08.624Z,14.53
2023-05-11T19:20:37.643Z,14.52
2023-05-11T19:24:04.948Z,14.54
2023-05-11T19:27:33.771Z,14.55
2023-05-11T19:31:01.695Z,14.57
2023-05-11T19:34:29.657Z,14.56
2023-05-11T19:37:18.550Z,14.58
2023-05-11T19:40:47.008Z,14.59
2023-05-11T19:44:15.217Z,14.54
2023-05-11T19:47:43.176Z,14.53
2023-05-11T19:50:32.129Z,14.53
2023-05-11T19:53:43.624Z,14.50
2023-05-11T19:57:11.612Z,14.48
2023-05-11T20:00:39.552Z,14.48
2023-05-11T20:03:51.754Z,14.43
2023-05-11T20:07:19.750Z,14.43
2023-05-11T20:10:27.694Z,14.43
2023-05-11T20:13:56.079Z,14.37
2023-05-11T20:16:45.107Z,14.31
2023-05-11T20:20:01.266Z,14.26
2023-05-11T20:22:51.462Z,14.20
2023-05-11T20:25:59.203Z,14.18
2023-05-11T20:29:07.868Z,14.13
2023-05-11T20:32:35.756Z,14.11
2023-05-11T20:36:04.185Z,14.05
2023-05-11T20:39:32.158Z,13.94
2023-05-11T20:42:55.659Z,13.85
2023-05-11T20:46:07.392Z,13.70
2023-05-11T20:49:39.416Z,13.48
2023-05-11T20:53:03.073Z,13.34
2023-05-11T20:56:11.333Z,13.20
2023-05-11T21:02:50.866Z,12.90
2023-05-11T21:06:18.949Z,12.77
2023-05-11T21:09:43.628Z,12.64
2023-05-11T21:13:11.644Z,12.56
2023-05-11T21:16:00.679Z,12.52
2023-05-11T21:19:28.584Z,12.51
2023-05-11T21:22:56.713Z,12.46
2023-05-11T21:26:24.708Z,12.47
2023-05-11T21:29:52.902Z,12.50
2023-05-11T21:33:16.946Z,12.49
2023-05-11T21:36:44.971Z,12.47
2023-05-11T21:40:13.970Z,12.48
2023-05-11T21:43:42.307Z,12.47
2023-05-11T21:47:11.492Z,12.45
2023-05-11T21:50:39.666Z,12.41
2023-05-11T21:54:08.084Z,12.39
2023-05-11T21:57:18.258Z,12.39
2023-05-11T22:00:28.867Z,12.40
2023-05-11T22:03:58.655Z,12.39
2023-05-11T22:07:08.614Z,12.41
2023-05-11T22:10:36.879Z,12.45
2023-05-11T22:13:49.586Z,12.46
2023-05-11T22:16:57.656Z,12.46
2023-05-11T22:20:26.141Z,12.48
2023-05-11T22:23:54.097Z,12.47
2023-05-11T22:27:22.213Z,12.49
2023-05-11T22:30:51.761Z,12.47
2023-05-11T22:34:19.757Z,12.44
2023-05-11T22:37:43.828Z,12.43
2023-05-11T22:40:55.851Z,12.42
2023-05-11T22:44:23.934Z,12.38
2023-05-11T22:47:59.724Z,12.34
2023-05-11T22:51:27.624Z,12.31
2023-05-11T22:54:55.582Z,12.31
2023-05-11T22:58:11.494Z,12.29
2023-05-11T23:01:40.092Z,12.29
2023-05-11T23:05:08.682Z,12.24
2023-05-11T23:08:18.551Z,12.20
2023-05-11T23:11:49.367Z,12.19
2023-05-11T23:15:18.144Z,12.18
2023-05-11T23:18:35.252Z,12.19
2023-05-11T23:22:04.413Z,12.18
2023-05-11T23:25:32.665Z,12.19
2023-05-11T23:29:01.302Z,12.23
2023-05-11T23:32:10.194Z,12.26
2023-05-11T23:35:25.084Z,12.28
2023-05-11T23:37:58.116Z,12.31
2023-05-11T23:41:22.213Z,12.30
2023-05-11T23:44:31.284Z,12.34
2023-05-11T23:48:00.642Z,12.35
2023-05-11T23:51:09.604Z,12.35
2023-05-11T23:54:37.433Z,12.33
2023-05-11T23:58:05.566Z,12.35
